createdAt,value
2023-05-12T00:01:17.597Z,18.90
2023-05-12T00:03:44.759Z,18.90
2023-05-12T00:06:12.566Z,18.80
2023-05-12T00:08:39.478Z,18.80
2023-05-12T00:11:06.390Z,18.70
2023-05-12T00:13:33.416Z,18.70
2023-05-12T00:16:00.648Z,18.70
2023-05-12T00:18:28.827Z,18.60
2023-05-12T00:20:56.248Z,18.50
2023-05-12T00:23:23.351Z,18.50
2023-05-12T00:25:50.621Z,18.50
2023-05-12T00:28:18.706Z,18.40
2023-05-12T00:30:45.717Z,18.40
2023-05-12T00:33:12.844Z,18.40
2023-05-12T00:35:39.897Z,18.40
2023-05-12T00:38:06.888Z,18.40
2023-05-12T00:40:34.029Z,18.40
2023-05-12T00:43:00.922Z,18.50
2023-05-12T00:45:29.827Z,18.50
2023-05-12T00:47:57.425Z,18.50
2023-05-12T00:50:24.620Z,18.60
2023-05-12T00:52:52.719Z,18.60
2023-05-12T00:55:19.954Z,18.60
2023-05-12T00:57:46.795Z,18.60
2023-05-12T01:00:14.126Z,18.60
2023-05-12T01:02:41.240Z,18.60
2023-05-12T01:05:10.020Z,18.70
2023-05-12T01:07:39.057Z,18.70
2023-05-12T01:10:20.750Z,18.80
2023-05-12T01:12:48.413Z,18.80
2023-05-12T01:15:15.884Z,18.80
2023-05-12T01:17:54.535Z,18.80
2023-05-12T01:20:25.245Z,18.80
2023-05-12T01:22:52.655Z,18.80
2023-05-12T01:25:22.563Z,18.80
2023-05-12T01:27:50.587Z,18.90
2023-05-12T01:30:18.863Z,18.90
2023-05-12T01:32:46.199Z,18.90
2023-05-12T01:35:13.181Z,18.90
2023-05-12T01:37:40.143Z,18.90
2023-05-12T01:40:08.116Z,18.90
2023-05-12T01:42:35.074Z,18.90
2023-05-12T01:45:02.045Z,18.90
2023-05-12T01:47:28.988Z,18.90
2023-05-12T01:49:55.919Z,18.90
2023-05-12T01:52:22.864Z,18.90
2023-05-12T01:54:51.503Z,18.80
2023-05-12T01:57:18.575Z,18.80
2023-05-12T01:59:45.455Z,18.80
2023-05-12T02:02:12.643Z,18.80
2023-05-12T02:04:39.592Z,18.80
2023-05-12T02:07:06.455Z,18.80
2023-05-12T02:09:33.554Z,18.80
2023-05-12T02:12:02.226Z,18.80
2023-05-12T02:14:29.101Z,18.70
2023-05-12T02:16:56.428Z,18.80
2023-05-12T02:19:23.258Z,18.80
2023-05-12T02:21:50.093Z,18.80
2023-05-12T02:24:17.044Z,18.80
2023-05-12T02:26:43.969Z,18.80
2023-05-12T02:29:13.796Z,18.80
2023-05-12T02:31:40.926Z,18.70
2023-05-12T02:34:07.851Z,18.80
2023-05-12T02:36:34.809Z,18.70
2023-05-12T02:39:01.763Z,18.70
2023-05-12T02:41:28.810Z,18.70
2023-05-12T02:43:55.697Z,18.70
2023-05-12T02:46:22.680Z,18.70
2023-05-12T02:48:49.599Z,18.80
2023-05-12T02:51:16.432Z,18.80
2023-05-12T02:53:43.328Z,18.80
2023-05-12T02:56:10.417Z,18.80
2023-05-12T02:58:38.318Z,18.80
2023-05-12T03:01:10.601Z,18.80
2023-05-12T03:03:38.802Z,18.80
2023-05-12T03:06:06.594Z,18.80
2023-05-12T03:08:33.529Z,18.80
2023-05-12T03:11:00.492Z,18.80
2023-05-12T03:13:27.474Z,18.80
2023-05-12T03:15:54.564Z,18.80
2023-05-12T03:18:21.522Z,18.70
2023-05-12T03:20:48.529Z,18.70
2023-05-12T03:23:15.532Z,18.70
2023-05-12T03:25:42.497Z,18.70
2023-05-12T03:28:09.402Z,18.70
2023-05-12T03:30:36.280Z,18.70
2023-05-12T03:33:03.215Z,18.70
2023-05-12T03:35:31.039Z,18.60
2023-05-12T03:37:57.987Z,18.60
2023-05-12T03:40:24.827Z,18.60
2023-05-12T03:42:52.124Z,18.60
2023-05-12T03:45:19.136Z,18.60
2023-05-12T03:47:46.188Z,18.60
2023-05-12T03:50:13.214Z,18.60
2023-05-12T03:52:41.538Z,18.60
2023-05-12T03:55:09.255Z,18.60
2023-05-12T03:57:36.794Z,18.60
2023-05-12T04:00:05.524Z,18.60
2023-05-12T04:02:32.618Z,18.50
2023-05-12T04:05:00.795Z,18.60
2023-05-12T04:07:27.869Z,18.60
2023-05-12T04:09:54.766Z,18.60
2023-05-12T04:12:21.661Z,18.60
2023-05-12T04:14:48.932Z,18.60
2023-05-12T04:17:15.827Z,18.60
2023-05-12T04:19:42.887Z,18.50
2023-05-12T04:22:09.848Z,18.50
2023-05-12T04:24:38.771Z,18.50
2023-05-12T04:27:06.881Z,18.60
2023-05-12T04:29:33.804Z,18.60
2023-05-12T04:32:00.933Z,18.60
2023-05-12T04:34:27.916Z,18.60
2023-05-12T04:36:54.792Z,18.60
2023-05-12T04:39:21.655Z,18.60
2023-05-12T04:41:48.573Z,18.60
2023-05-12T04:44:15.675Z,18.70
2023-05-12T04:46:43.675Z,18.70
2023-05-12T04:49:11.359Z,18.70
2023-05-12T04:51:43.034Z,18.60
2023-05-12T04:54:10.801Z,18.60
2023-05-12T04:56:37.797Z,18.70
2023-05-12T04:59:04.766Z,18.60
2023-05-12T05:01:31.738Z,18.70
2023-05-12T05:03:58.697Z,18.70
2023-05-12T05:06:25.640Z,18.60
2023-05-12T05:08:53.412Z,18.60
2023-05-12T05:11:21.924Z,18.60
2023-05-12T05:13:48.967Z,18.60
2023-05-12T05:16:16.058Z,18.60
2023-05-12T05:18:46.477Z,18.60
2023-05-12T05:21:16.591Z,18.60
2023-05-12T05:23:43.492Z,18.60
2023-05-12T05:26:10.698Z,18.60
2023-05-12T05:28:40.068Z,18.60
2023-05-12T05:31:07.709Z,18.60
2023-05-12T05:33:34.741Z,18.60
2023-05-12T05:36:01.935Z,18.60
2023-05-12T05:38:28.849Z,18.60
2023-05-12T05:40:56.015Z,18.60
2023-05-12T05:43:23.060Z,18.60
2023-05-12T05:45:50.894Z,18.70
2023-05-12T05:48:18.318Z,18.70
2023-05-12T05:50:45.417Z,18.70
2023-05-12T05:53:12.294Z,18.80
2023-05-12T05:55:39.223Z,18.80
2023-05-12T05:58:06.226Z,18.80
2023-05-12T06:00:33.060Z,18.90
2023-05-12T06:02:59.997Z,18.90
2023-05-12T06:05:27.169Z,18.90
2023-05-12T06:07:54.129Z,18.90
2023-05-12T06:10:21.614Z,19.00
2023-05-12T06:12:48.927Z,19.00
2023-05-12T06:15:15.949Z,19.00
2023-05-12T06:17:42.865Z,19.10
2023-05-12T06:20:10.099Z,19.10
2023-05-12T06:22:37.130Z,19.10
2023-05-12T06:25:04.273Z,19.20
2023-05-12T06:27:31.291Z,19.20
2023-05-12T06:29:58.202Z,19.20
2023-05-12T06:32:25.110Z,19.30
2023-05-12T06:34:52.164Z,19.30
2023-05-12T06:37:19.109Z,19.30
2023-05-12T06:39:45.978Z,19.30
2023-05-12T06:42:12.883Z,19.30
2023-05-12T06:44:41.883Z,19.30
2023-05-12T06:47:09.525Z,19.30
2023-05-12T06:49:38.088Z,19.30
2023-05-12T06:52:06.757Z,19.40
2023-05-12T06:54:34.161Z,19.40
2023-05-12T06:57:01.146Z,19.40
2023-05-12T06:59:28.007Z,19.50
2023-05-12T07:01:55.038Z,19.60
2023-05-12T07:04:22.779Z,19.60
2023-05-12T07:06:49.958Z,19.70
2023-05-12T07:09:18.820Z,19.80
2023-05-12T07:11:46.078Z,19.90
2023-05-12T07:14:12.966Z,19.90
2023-05-12T07:16:40.045Z,20.00
2023-05-12T07:19:09.176Z,20.10
2023-05-12T07:21:37.268Z,20.10
2023-05-12T07:24:06.128Z,20.20
2023-05-12T07:26:33.430Z,20.20
2023-05-12T07:29:01.056Z,20.20
2023-05-12T07:31:28.766Z,20.30
2023-05-12T07:33:56.013Z,20.20
2023-05-12T07:36:23.205Z,20.30
2023-05-12T07:38:50.192Z,20.30
2023-05-12T07:41:18.093Z,20.30
2023-05-12T07:43:45.628Z,20.30
2023-05-12T07:46:12.553Z,20.40
2023-05-12T07:48:40.490Z,20.40
2023-05-12T07:51:08.148Z,20.50
2023-05-12T07:53:35.148Z,20.50
2023-05-12T07:56:02.085Z,20.50
2023-05-12T07:58:29.091Z,20.50
2023-05-12T08:00:57.937Z,20.60
2023-05-12T08:03:24.919Z,20.60
2023-05-12T08:05:51.857Z,20.70
2023-05-12T08:08:18.739Z,20.70
2023-05-12T08:10:45.681Z,20.70
2023-05-12T08:13:12.878Z,20.80
2023-05-12T08:15:39.809Z,20.90
2023-05-12T08:18:06.825Z,20.90
2023-05-12T08:20:33.821Z,20.90
2023-05-12T08:23:00.709Z,21.00
2023-05-12T08:25:30.631Z,21.00
2023-05-12T08:28:00.686Z,21.10
2023-05-12T08:30:27.945Z,21.20
2023-05-12T08:32:56.259Z,21.20
2023-05-12T08:35:26.367Z,21.20
2023-05-12T08:37:53.371Z,21.30
2023-05-12T08:40:24.666Z,21.40
2023-05-12T08:43:20.818Z,21.60
2023-05-12T08:45:48.809Z,22.00
2023-05-12T08:48:18.000Z,22.50
2023-05-12T08:50:45.871Z,23.00
2023-05-12T08:53:16.293Z,23.60
2023-05-12T08:55:58.290Z,24.20
2023-05-12T08:58:40.897Z,24.90
2023-05-12T09:01:08.900Z,25.70
2023-05-12T09:03:36.246Z,26.30
2023-05-12T09:06:04.290Z,26.90
2023-05-12T09:08:38.048Z,27.30
2023-05-12T09:11:05.840Z,27.80
2023-05-12T09:14:01.624Z,28.10
2023-05-12T09:16:31.888Z,28.50
2023-05-12T09:19:00.758Z,28.60
2023-05-12T09:21:28.588Z,28.60
2023-05-12T09:24:00.544Z,28.50
2023-05-12T09:26:29.035Z,28.30
2023-05-12T09:29:08.586Z,28.10
2023-05-12T09:31:36.682Z,27.90
2023-05-12T09:34:09.077Z,27.60
2023-05-12T09:36:36.685Z,27.30
2023-05-12T09:39:09.335Z,27.00
2023-05-12T09:41:37.773Z,26.80
2023-05-12T09:44:05.467Z,26.50
2023-05-12T09:46:32.669Z,26.20
2023-05-12T09:48:59.867Z,25.90
2023-05-12T09:51:27.326Z,25.70
2023-05-12T09:53:54.216Z,25.50
2023-05-12T09:56:21.505Z,25.40
2023-05-12T09:58:49.639Z,25.20
2023-05-12T10:01:23.234Z,25.00
2023-05-12T10:03:56.758Z,24.90
2023-05-12T10:06:26.142Z,24.80
2023-05-12T10:09:15.887Z,24.70
2023-05-12T10:11:44.278Z,24.60
2023-05-12T10:14:11.466Z,24.60
2023-05-12T10:16:40.507Z,24.60
2023-05-12T10:19:09.070Z,24.60
2023-05-12T10:21:38.239Z,24.50
2023-05-12T10:24:05.328Z,24.50
2023-05-12T10:26:35.142Z,24.40
2023-05-12T10:29:02.193Z,24.30
2023-05-12T10:31:29.538Z,24.20
2023-05-12T10:34:00.578Z,24.10
2023-05-12T10:36:27.780Z,24.00
2023-05-12T10:38:55.754Z,23.80
2023-05-12T10:41:31.284Z,23.70
2023-05-12T10:43:58.761Z,23.60
2023-05-12T10:46:27.391Z,23.60
2023-05-12T10:49:09.112Z,23.50
2023-05-12T10:51:44.840Z,23.40
2023-05-12T10:54:19.163Z,23.30
2023-05-12T10:56:46.480Z,23.30
2023-05-12T10:59:27.258Z,23.20
2023-05-12T11:02:06.998Z,23.10
2023-05-12T11:04:46.933Z,23.00
2023-05-12T11:07:17.178Z,23.00
2023-05-12T11:12:16.875Z,22.80
2023-05-12T11:14:44.876Z,22.70
2023-05-12T11:17:12.087Z,22.60
2023-05-12T11:19:40.286Z,22.50
2023-05-12T11:22:10.966Z,22.40
2023-05-12T11:24:40.722Z,22.30
2023-05-12T11:27:12.767Z,22.10
2023-05-12T11:29:41.680Z,21.70
2023-05-12T11:32:12.623Z,21.10
2023-05-12T11:34:39.667Z,20.40
2023-05-12T11:37:09.434Z,19.70
2023-05-12T11:39:36.592Z,19.20
2023-05-12T11:42:13.514Z,18.70
2023-05-12T11:44:49.090Z,18.40
2023-05-12T11:47:17.357Z,18.00
2023-05-12T11:49:50.191Z,17.70
2023-05-12T11:52:19.663Z,17.50
2023-05-12T11:54:53.282Z,17.30
2023-05-12T11:57:32.777Z,17.10
2023-05-12T12:00:02.999Z,17.00
2023-05-12T12:02:30.039Z,17.00
2023-05-12T12:04:57.786Z,17.00
2023-05-12T12:07:35.607Z,17.00
2023-05-12T12:10:16.507Z,17.00
2023-05-12T12:12:44.206Z,17.00
2023-05-12T12:15:12.395Z,17.00
2023-05-12T12:17:40.353Z,17.00
2023-05-12T12:20:09.316Z,17.00
2023-05-12T12:22:36.642Z,17.00
2023-05-12T12:25:03.982Z,17.00
2023-05-12T12:27:31.180Z,17.00
2023-05-12T12:29:58.088Z,17.10
2023-05-12T12:32:25.205Z,17.10
2023-05-12T12:34:52.968Z,17.00
2023-05-12T12:37:19.848Z,17.00
2023-05-12T12:39:48.027Z,17.00
2023-05-12T12:42:15.730Z,16.90
2023-05-12T12:44:42.941Z,16.90
2023-05-12T12:47:10.160Z,16.80
2023-05-12T12:49:37.724Z,16.70
2023-05-12T12:52:05.776Z,16.70
2023-05-12T12:54:32.728Z,16.60
2023-05-12T12:56:59.650Z,16.60
2023-05-12T12:59:27.213Z,16.60
2023-05-12T13:01:54.522Z,16.60
2023-05-12T13:04:23.185Z,16.60
2023-05-12T13:06:50.117Z,16.70
2023-05-12T13:09:19.768Z,16.70
2023-05-12T13:11:47.714Z,16.70
2023-05-12T13:14:14.653Z,16.70
2023-05-12T13:16:41.862Z,16.80
2023-05-12T13:19:09.042Z,16.80
2023-05-12T13:21:36.098Z,16.80
2023-05-12T13:24:03.010Z,16.90
2023-05-12T13:26:29.876Z,17.00
2023-05-12T13:28:56.740Z,17.00
2023-05-12T13:31:23.761Z,17.10
2023-05-12T13:33:50.646Z,17.10
2023-05-12T13:36:17.653Z,17.20
2023-05-12T13:38:47.064Z,17.30
2023-05-12T13:41:14.173Z,17.30
2023-05-12T13:43:40.995Z,17.40
2023-05-12T13:46:08.483Z,17.50
2023-05-12T13:48:35.795Z,17.60
2023-05-12T13:51:02.724Z,17.60
2023-05-12T13:53:29.616Z,17.70
2023-05-12T13:55:56.500Z,17.70
2023-05-12T13:58:23.396Z,17.70
2023-05-12T14:00:50.541Z,17.80
2023-05-12T14:03:18.161Z,17.90
2023-05-12T14:05:45.135Z,17.90
2023-05-12T14:08:12.232Z,18.00
2023-05-12T14:10:39.090Z,18.00
2023-05-12T14:13:07.334Z,18.10
2023-05-12T14:15:48.061Z,18.10
2023-05-12T14:18:16.561Z,18.10
2023-05-12T14:20:43.515Z,18.20
2023-05-12T14:23:10.438Z,18.20
2023-05-12T14:25:37.448Z,18.20
2023-05-12T14:28:04.429Z,18.20
2023-05-12T14:30:31.472Z,18.30
2023-05-12T14:32:58.420Z,18.30
2023-05-12T14:35:27.817Z,18.30
2023-05-12T14:37:55.547Z,18.40
2023-05-12T14:40:23.467Z,18.70
2023-05-12T14:42:50.703Z,19.20
2023-05-12T14:45:17.922Z,19.80
2023-05-12T14:47:45.230Z,20.60
2023-05-12T14:50:12.423Z,21.40
2023-05-12T14:52:39.566Z,22.20
2023-05-12T14:55:11.661Z,22.90
2023-05-12T14:57:42.101Z,23.60
2023-05-12T15:00:11.706Z,24.20
2023-05-12T15:02:43.044Z,24.80
2023-05-12T15:05:11.354Z,25.30
2023-05-12T15:07:38.318Z,25.80
2023-05-12T15:10:06.102Z,26.30
2023-05-12T15:12:33.850Z,26.80
2023-05-12T15:15:02.328Z,27.30
2023-05-12T15:17:30.090Z,27.70
2023-05-12T15:19:57.535Z,28.20
2023-05-12T15:22:24.380Z,28.60
2023-05-12T15:24:51.226Z,29.00
2023-05-12T15:27:18.108Z,29.40
2023-05-12T15:29:45.106Z,29.70
2023-05-12T15:32:12.063Z,30.00
2023-05-12T15:34:39.309Z,30.30
2023-05-12T15:37:06.703Z,30.50
2023-05-12T15:39:33.660Z,30.80
2023-05-12T15:42:01.165Z,30.90
2023-05-12T15:44:28.131Z,31.10
2023-05-12T15:46:55.314Z,31.10
2023-05-12T15:49:22.558Z,31.20
2023-05-12T15:51:49.388Z,31.20
2023-05-12T15:54:16.556Z,31.20
2023-05-12T15:56:43.556Z,31.20
2023-05-12T15:59:12.226Z,31.10
2023-05-12T16:01:39.285Z,30.80
2023-05-12T16:04:06.919Z,30.40
2023-05-12T16:06:33.992Z,29.80
2023-05-12T16:09:01.117Z,29.30
2023-05-12T16:11:28.461Z,28.70
2023-05-12T16:13:57.163Z,28.10
2023-05-12T16:16:24.291Z,27.60
2023-05-12T16:18:51.218Z,27.10
2023-05-12T16:21:18.123Z,26.70
2023-05-12T16:23:44.995Z,26.20
2023-05-12T16:26:11.941Z,25.80
2023-05-12T16:28:38.809Z,25.50
2023-05-12T16:31:05.777Z,25.10
2023-05-12T16:33:32.677Z,24.70
2023-05-12T16:35:59.519Z,24.50
2023-05-12T16:38:26.831Z,24.20
2023-05-12T16:40:53.697Z,23.90
2023-05-12T16:43:20.524Z,23.60
2023-05-12T16:45:47.633Z,23.40
2023-05-12T16:48:14.556Z,23.20
2023-05-12T16:50:41.417Z,23.00
2023-05-12T16:53:09.202Z,22.80
2023-05-12T16:55:36.042Z,22.60
2023-05-12T16:58:03.100Z,22.40
2023-05-12T17:00:30.454Z,22.30
2023-05-12T17:02:57.379Z,22.20
2023-05-12T17:05:24.737Z,22.00
2023-05-12T17:07:51.731Z,21.90
2023-05-12T17:10:18.604Z,21.80
2023-05-12T17:12:45.501Z,21.70
2023-05-12T17:15:12.397Z,21.60
2023-05-12T17:17:39.421Z,21.50
2023-05-12T17:20:06.791Z,21.40
2023-05-12T17:22:37.153Z,21.30
2023-05-12T17:25:04.364Z,21.20
2023-05-12T17:27:31.414Z,21.00
2023-05-12T17:29:59.874Z,20.80
2023-05-12T17:32:27.190Z,20.60
2023-05-12T17:34:54.085Z,20.50
2023-05-12T17:37:21.016Z,20.30
2023-05-12T17:39:47.959Z,20.20
2023-05-12T17:42:14.860Z,20.10
2023-05-12T17:44:41.789Z,20.00
2023-05-12T17:47:08.982Z,19.90
2023-05-12T17:49:36.385Z,19.80
2023-05-12T17:52:03.466Z,19.60
2023-05-12T17:54:30.336Z,19.50
2023-05-12T17:56:57.217Z,19.40
2023-05-12T17:59:25.194Z,19.30
2023-05-12T18:01:52.355Z,19.20
2023-05-12T18:04:19.696Z,19.10
2023-05-12T18:06:50.373Z,19.00
2023-05-12T18:09:17.975Z,19.00
2023-05-12T18:11:44.987Z,18.90
2023-05-12T18:14:11.906Z,19.00
2023-05-12T18:16:39.032Z,18.90
2023-05-12T18:19:06.039Z,18.90
2023-05-12T18:21:32.987Z,18.80
2023-05-12T18:23:59.855Z,18.80
2023-05-12T18:26:27.027Z,18.80
2023-05-12T18:28:53.942Z,18.80
2023-05-12T18:31:21.398Z,18.90
2023-05-12T18:33:49.711Z,18.90
2023-05-12T18:36:17.220Z,18.90
2023-05-12T18:38:44.171Z,18.80
2023-05-12T18:41:11.910Z,18.70
2023-05-12T18:43:39.020Z,18.60
2023-05-12T18:46:06.225Z,18.50
2023-05-12T18:48:33.210Z,18.40
2023-05-12T18:51:01.272Z,18.30
2023-05-12T18:53:28.280Z,18.10
2023-05-12T18:55:55.107Z,18.10
2023-05-12T18:58:22.074Z,18.00
2023-05-12T19:00:48.938Z,18.00
2023-05-12T19:03:16.329Z,17.90
2023-05-12T19:05:44.775Z,17.90
2023-05-12T19:08:12.732Z,17.90
2023-05-12T19:10:40.213Z,17.90
2023-05-12T19:13:08.141Z,17.80
2023-05-12T19:15:36.188Z,17.80
2023-05-12T19:18:03.145Z,17.80
2023-05-12T19:20:31.101Z,17.80
2023-05-12T19:22:59.815Z,17.80
2023-05-12T19:25:26.721Z,17.80
2023-05-12T19:27:53.676Z,17.80
2023-05-12T19:30:20.648Z,17.80
2023-05-12T19:32:47.794Z,17.80
2023-05-12T19:35:15.152Z,17.80
2023-05-12T19:37:42.205Z,17.70
2023-05-12T19:40:09.416Z,17.70
2023-05-12T19:42:38.030Z,17.60
2023-05-12T19:45:05.804Z,17.50
2023-05-12T19:47:33.568Z,17.50
2023-05-12T19:50:01.057Z,17.40
2023-05-12T19:52:30.697Z,17.40
2023-05-12T19:54:57.974Z,17.30
2023-05-12T19:57:24.881Z,17.30
2023-05-12T19:59:51.865Z,17.30
2023-05-12T20:02:18.853Z,17.30
2023-05-12T20:04:45.886Z,17.40
2023-05-12T20:07:13.069Z,17.40
2023-05-12T20:09:40.004Z,17.40
2023-05-12T20:12:08.167Z,17.50
2023-05-12T20:14:36.296Z,17.50
2023-05-12T20:17:05.898Z,17.50
2023-05-12T20:19:33.579Z,17.50
2023-05-12T20:22:00.601Z,17.60
2023-05-12T20:24:27.927Z,17.60
2023-05-12T20:26:55.111Z,17.60
2023-05-12T20:29:22.338Z,17.70
2023-05-12T20:31:50.851Z,17.70
2023-05-12T20:34:18.916Z,17.70
2023-05-12T20:36:45.830Z,17.70
2023-05-12T20:39:13.746Z,17.70
2023-05-12T20:41:41.730Z,17.70
2023-05-12T20:44:09.172Z,17.70
2023-05-12T20:46:38.306Z,17.80
2023-05-12T20:49:05.817Z,17.70
2023-05-12T20:51:32.801Z,17.80
2023-05-12T20:53:59.826Z,17.80
2023-05-12T20:56:27.146Z,17.80
2023-05-12T20:58:54.357Z,17.80
2023-05-12T21:01:21.340Z,17.80
2023-05-12T21:03:48.374Z,17.80
2023-05-12T21:06:15.274Z,17.80
2023-05-12T21:08:42.436Z,17.80
2023-05-12T21:11:17.865Z,17.80
2023-05-12T21:13:47.032Z,17.80
2023-05-12T21:16:14.751Z,17.80
2023-05-12T21:18:41.841Z,17.90
2023-05-12T21:21:08.830Z,17.80
2023-05-12T21:23:38.696Z,17.90
2023-05-12T21:26:06.076Z,17.80
2023-05-12T21:28:32.958Z,17.80
2023-05-12T21:30:59.790Z,17.90
2023-05-12T21:33:26.671Z,17.90
2023-05-12T21:35:53.597Z,17.80
2023-05-12T21:38:21.004Z,17.80
2023-05-12T21:40:56.434Z,17.70
2023-05-12T21:43:23.363Z,17.80
2023-05-12T21:45:50.499Z,17.70
2023-05-12T21:48:17.897Z,17.70
2023-05-12T21:50:44.799Z,17.70
2023-05-12T21:53:11.746Z,17.60
2023-05-12T21:55:40.753Z,17.60
2023-05-12T21:58:07.592Z,17.60
2023-05-12T22:00:34.460Z,17.50
2023-05-12T22:03:01.479Z,17.50
2023-05-12T22:05:28.419Z,17.50
2023-05-12T22:07:55.744Z,17.40
2023-05-12T22:10:22.840Z,17.40
2023-05-12T22:12:50.079Z,17.40
2023-05-12T22:15:18.222Z,17.40
2023-05-12T22:17:48.888Z,17.30
2023-05-12T22:20:17.322Z,17.30
2023-05-12T22:22:44.426Z,17.30
2023-05-12T22:25:11.518Z,17.30
2023-05-12T22:27:38.545Z,17.30
2023-05-12T22:30:06.024Z,17.30
2023-05-12T22:32:33.235Z,17.40
2023-05-12T22:35:00.177Z,17.30
2023-05-12T22:37:27.420Z,17.30
2023-05-12T22:39:54.891Z,17.30
2023-05-12T22:42:22.309Z,17.30
2023-05-12T22:44:50.132Z,17.30
2023-05-12T22:47:17.167Z,17.40
2023-05-12T22:49:44.144Z,17.30
2023-05-12T22:52:11.455Z,17.30
2023-05-12T22:54:38.358Z,17.40
2023-05-12T22:57:05.510Z,17.30
2023-05-12T22:59:32.363Z,17.30
2023-05-12T23:01:59.266Z,17.40
2023-05-12T23:04:26.260Z,17.30
2023-05-12T23:06:53.181Z,17.30
2023-05-12T23:09:20.051Z,17.30
2023-05-12T23:11:46.887Z,17.30
2023-05-12T23:14:13.778Z,17.30
2023-05-12T23:16:40.754Z,17.30
2023-05-12T23:19:07.821Z,17.30
2023-05-12T23:21:34.826Z,17.30
2023-05-12T23:24:01.720Z,17.40
2023-05-12T23:26:28.603Z,17.40
2023-05-12T23:28:55.533Z,17.40
2023-05-12T23:31:22.686Z,17.40
2023-05-12T23:33:50.107Z,17.40
2023-05-12T23:36:17.085Z,17.30
2023-05-12T23:38:43.993Z,17.30
2023-05-12T23:41:10.901Z,17.30
2023-05-12T23:43:37.833Z,17.30
2023-05-12T23:46:04.951Z,17.30
2023-05-12T23:48:32.037Z,17.30
2023-05-12T23:50:58.946Z,17.40
2023-05-12T23:53:25.839Z,17.30
2023-05-12T23:55:52.722Z,17.30
2023-05-12T23:58:19.589Z,17.30
